CheckWX is a tool to help pilots better visualize weather data.  It is not intended as a substitute for an official pre-flight weather briefing.

09:25:53 UTC

CYHZ TAF
Halifax / Stanfield International Airport
Halifax, Canada
TAF CYHZ 200839Z 2009/2106 31020G30KT P6SM FEW030 BECMG 2022/2024 31012KT BECMG 2104/2106 VRB03KT RMK NXT FCST BY 201200Z

Feb-20@
09:00 UTC

Feb-20 @ 09:00 UTC

Feb-20@
22:00 UTC

Feb-20 @ 22:00 UTC

TAF CYHZ 200839Z 2009/2106 31020G30KT P6SM FEW030
Wind
  • 310° at 20 KTS
  • {Gusting to 30 KTS
Visibility
10,000+ meters
Cloud Levels
  • Few at 3,000' AGL

Feb-20@
22:00 UTC

Feb-20 @ 22:00 UTC

Feb-21@
04:00 UTC

Feb-21 @ 04:00 UTC

BECMG 2022/2024 31012KT

Becoming

BecomingConditions expected by Thu, Feb 21, 2019 @ 00:00 UTC

Wind
  • 310° at 12 KTS
Visibility
10,000+ meters
Cloud Levels
  • Few at 3,000' AGL

Feb-21@
04:00 UTC

Feb-21 @ 04:00 UTC

Feb-21@
06:00 UTC

Feb-21 @ 06:00 UTC

BECMG 2104/2106 VRB03KT RMK NXT FCST BY 201200Z

Becoming

BecomingConditions expected by Thu, Feb 21, 2019 @ 06:00 UTC

Wind
  • Variable at 3 KTS
Visibility
10,000+ meters
Cloud Levels
  • Few at 3,000' AGL